sensor_id;sensor_type;location;lat;lon;timestamp;P1;durP1;ratioP1;P2;durP2;ratioP2
14526;SDS011;7350;51.208;4.238;2022-08-05T00:00:06;4.35;;;2.40;;
14526;SDS011;7350;51.208;4.238;2022-08-05T00:02:34;6.50;;;2.83;;
14526;SDS011;7350;51.208;4.238;2022-08-05T00:05:03;4.93;;;2.42;;
14526;SDS011;7350;51.208;4.238;2022-08-05T00:07:32;4.68;;;2.58;;
14526;SDS011;7350;51.208;4.238;2022-08-05T00:09:59;4.95;;;2.28;;
14526;SDS011;7350;51.208;4.238;2022-08-05T00:12:26;7.00;;;2.35;;
14526;SDS011;7350;51.208;4.238;2022-08-05T00:14:53;4.90;;;2.10;;
14526;SDS011;7350;51.208;4.238;2022-08-05T00:17:20;7.80;;;2.50;;
14526;SDS011;7350;51.208;4.238;2022-08-05T00:19:47;3.78;;;2.00;;
14526;SDS011;7350;51.208;4.238;2022-08-05T00:22:14;3.03;;;1.90;;
14526;SDS011;7350;51.208;4.238;2022-08-05T00:24:42;4.93;;;2.20;;
14526;SDS011;7350;51.208;4.238;2022-08-05T00:27:09;5.32;;;1.92;;
14526;SDS011;7350;51.208;4.238;2022-08-05T00:29:36;3.50;;;1.85;;
14526;SDS011;7350;51.208;4.238;2022-08-05T00:32:03;8.82;;;2.65;;
14526;SDS011;7350;51.208;4.238;2022-08-05T00:34:31;4.68;;;2.22;;
14526;SDS011;7350;51.208;4.238;2022-08-05T00:36:58;6.65;;;2.15;;
14526;SDS011;7350;51.208;4.238;2022-08-05T00:39:25;5.85;;;2.47;;
14526;SDS011;7350;51.208;4.238;2022-08-05T00:41:53;6.97;;;2.40;;
14526;SDS011;7350;51.208;4.238;2022-08-05T00:44:20;6.32;;;2.50;;
14526;SDS011;7350;51.208;4.238;2022-08-05T00:46:47;5.47;;;2.47;;
14526;SDS011;7350;51.208;4.238;2022-08-05T00:49:14;4.95;;;2.17;;
14526;SDS011;7350;51.208;4.238;2022-08-05T00:51:43;6.13;;;2.00;;
14526;SDS011;7350;51.208;4.238;2022-08-05T00:54:10;3.85;;;1.83;;
14526;SDS011;7350;51.208;4.238;2022-08-05T00:56:37;8.48;;;2.75;;
14526;SDS011;7350;51.208;4.238;2022-08-05T00:59:05;6.80;;;2.78;;
14526;SDS011;7350;51.208;4.238;2022-08-05T01:01:32;6.50;;;2.33;;
14526;SDS011;7350;51.208;4.238;2022-08-05T01:04:00;5.90;;;2.50;;
14526;SDS011;7350;51.208;4.238;2022-08-05T01:06:27;6.65;;;2.42;;
14526;SDS011;7350;51.208;4.238;2022-08-05T01:08:54;4.35;;;2.30;;
14526;SDS011;7350;51.208;4.238;2022-08-05T01:11:22;5.85;;;2.70;;
14526;SDS011;7350;51.208;4.238;2022-08-05T01:14:00;6.07;;;2.80;;
14526;SDS011;7350;51.208;4.238;2022-08-05T01:16:34;8.38;;;3.13;;
14526;SDS011;7350;51.208;4.238;2022-08-05T01:19:10;8.63;;;3.17;;
14526;SDS011;7350;51.208;4.238;2022-08-05T01:22:10;6.28;;;2.92;;
14526;SDS011;7350;51.208;4.238;2022-08-05T01:24:59;7.30;;;2.70;;
14526;SDS011;7350;51.208;4.238;2022-08-05T01:27:47;5.20;;;2.30;;
14526;SDS011;7350;51.208;4.238;2022-08-05T01:30:21;8.07;;;3.40;;
14526;SDS011;7350;51.208;4.238;2022-08-05T01:32:49;6.13;;;3.22;;
14526;SDS011;7350;51.208;4.238;2022-08-05T01:35:21;9.60;;;3.78;;
14526;SDS011;7350;51.208;4.238;2022-08-05T01:37:52;11.10;;;4.10;;
14526;SDS011;7350;51.208;4.238;2022-08-05T01:40:23;9.60;;;4.03;;
14526;SDS011;7350;51.208;4.238;2022-08-05T01:42:55;10.23;;;4.18;;
14526;SDS011;7350;51.208;4.238;2022-08-05T01:45:24;7.88;;;4.50;;
14526;SDS011;7350;51.208;4.238;2022-08-05T01:47:52;8.32;;;4.03;;
14526;SDS011;7350;51.208;4.238;2022-08-05T01:50:24;9.18;;;4.32;;
14526;SDS011;7350;51.208;4.238;2022-08-05T01:52:52;8.18;;;4.45;;
14526;SDS011;7350;51.208;4.238;2022-08-05T01:55:23;8.95;;;4.28;;
14526;SDS011;7350;51.208;4.238;2022-08-05T01:57:52;7.65;;;3.88;;
14526;SDS011;7350;51.208;4.238;2022-08-05T02:00:22;9.02;;;3.65;;
14526;SDS011;7350;51.208;4.238;2022-08-05T02:02:51;7.07;;;3.92;;
14526;SDS011;7350;51.208;4.238;2022-08-05T02:05:21;5.03;;;3.03;;
14526;SDS011;7350;51.208;4.238;2022-08-05T02:07:53;6.57;;;3.20;;
14526;SDS011;7350;51.208;4.238;2022-08-05T02:10:20;8.27;;;3.40;;
14526;SDS011;7350;51.208;4.238;2022-08-05T02:12:49;8.13;;;3.78;;
14526;SDS011;7350;51.208;4.238;2022-08-05T02:15:21;8.98;;;3.78;;
14526;SDS011;7350;51.208;4.238;2022-08-05T02:17:51;5.95;;;3.30;;
14526;SDS011;7350;51.208;4.238;2022-08-05T02:20:22;6.55;;;3.67;;
14526;SDS011;7350;51.208;4.238;2022-08-05T02:22:54;8.30;;;3.47;;
14526;SDS011;7350;51.208;4.238;2022-08-05T02:25:24;9.20;;;4.43;;
14526;SDS011;7350;51.208;4.238;2022-08-05T02:27:53;6.93;;;3.83;;
14526;SDS011;7350;51.208;4.238;2022-08-05T02:30:23;6.93;;;3.50;;
14526;SDS011;7350;51.208;4.238;2022-08-05T02:32:53;6.82;;;3.50;;
14526;SDS011;7350;51.208;4.238;2022-08-05T02:35:23;8.23;;;4.15;;
14526;SDS011;7350;51.208;4.238;2022-08-05T02:37:51;6.53;;;3.78;;
14526;SDS011;7350;51.208;4.238;2022-08-05T02:40:20;8.68;;;3.78;;
14526;SDS011;7350;51.208;4.238;2022-08-05T02:42:49;8.02;;;4.05;;
14526;SDS011;7350;51.208;4.238;2022-08-05T02:45:18;7.18;;;3.83;;
14526;SDS011;7350;51.208;4.238;2022-08-05T02:47:48;8.98;;;3.83;;
14526;SDS011;7350;51.208;4.238;2022-08-05T02:50:16;8.55;;;3.72;;
14526;SDS011;7350;51.208;4.238;2022-08-05T02:52:44;5.47;;;3.42;;
14526;SDS011;7350;51.208;4.238;2022-08-05T02:55:12;6.78;;;3.55;;
14526;SDS011;7350;51.208;4.238;2022-08-05T02:57:40;7.47;;;3.83;;
14526;SDS011;7350;51.208;4.238;2022-08-05T03:00:11;6.65;;;3.65;;
14526;SDS011;7350;51.208;4.238;2022-08-05T03:02:39;8.45;;;4.00;;
14526;SDS011;7350;51.208;4.238;2022-08-05T03:05:10;6.20;;;3.70;;
14526;SDS011;7350;51.208;4.238;2022-08-05T03:07:38;10.35;;;4.70;;
14526;SDS011;7350;51.208;4.238;2022-08-05T03:10:07;10.18;;;4.85;;
14526;SDS011;7350;51.208;4.238;2022-08-05T03:12:36;8.20;;;4.68;;
14526;SDS011;7350;51.208;4.238;2022-08-05T03:15:04;9.02;;;4.70;;
14526;SDS011;7350;51.208;4.238;2022-08-05T03:17:33;8.60;;;4.93;;
14526;SDS011;7350;51.208;4.238;2022-08-05T03:20:00;7.85;;;4.25;;
14526;SDS011;7350;51.208;4.238;2022-08-05T03:22:28;7.15;;;4.72;;
14526;SDS011;7350;51.208;4.238;2022-08-05T03:24:55;8.30;;;4.80;;
14526;SDS011;7350;51.208;4.238;2022-08-05T03:27:23;9.73;;;4.80;;
14526;SDS011;7350;51.208;4.238;2022-08-05T03:29:51;9.60;;;4.38;;
14526;SDS011;7350;51.208;4.238;2022-08-05T03:32:18;9.05;;;4.57;;
14526;SDS011;7350;51.208;4.238;2022-08-05T03:34:45;8.30;;;4.90;;
14526;SDS011;7350;51.208;4.238;2022-08-05T03:37:12;7.80;;;4.50;;
14526;SDS011;7350;51.208;4.238;2022-08-05T03:39:51;8.05;;;5.00;;
14526;SDS011;7350;51.208;4.238;2022-08-05T03:42:22;8.85;;;5.57;;
14526;SDS011;7350;51.208;4.238;2022-08-05T03:44:49;10.57;;;5.50;;
14526;SDS011;7350;51.208;4.238;2022-08-05T03:47:16;9.98;;;5.43;;
14526;SDS011;7350;51.208;4.238;2022-08-05T03:49:43;10.23;;;5.63;;
14526;SDS011;7350;51.208;4.238;2022-08-05T03:52:11;10.35;;;6.05;;
14526;SDS011;7350;51.208;4.238;2022-08-05T03:54:47;14.32;;;6.95;;
14526;SDS011;7350;51.208;4.238;2022-08-05T03:57:19;10.90;;;7.82;;
14526;SDS011;7350;51.208;4.238;2022-08-05T03:59:52;9.45;;;8.18;;
14526;SDS011;7350;51.208;4.238;2022-08-05T04:02:21;14.63;;;8.00;;
14526;SDS011;7350;51.208;4.238;2022-08-05T04:04:51;15.82;;;7.50;;
14526;SDS011;7350;51.208;4.238;2022-08-05T04:07:18;12.77;;;6.32;;
14526;SDS011;7350;51.208;4.238;2022-08-05T04:09:46;10.63;;;6.78;;
14526;SDS011;7350;51.208;4.238;2022-08-05T04:12:14;10.68;;;6.88;;
14526;SDS011;7350;51.208;4.238;2022-08-05T04:14:42;11.80;;;6.28;;
14526;SDS011;7350;51.208;4.238;2022-08-05T04:17:09;9.48;;;5.70;;
14526;SDS011;7350;51.208;4.238;2022-08-05T04:19:40;14.75;;;5.82;;
14526;SDS011;7350;51.208;4.238;2022-08-05T04:22:08;8.23;;;5.18;;
14526;SDS011;7350;51.208;4.238;2022-08-05T04:24:35;10.02;;;6.03;;
14526;SDS011;7350;51.208;4.238;2022-08-05T04:27:02;12.93;;;5.60;;
14526;SDS011;7350;51.208;4.238;2022-08-05T04:29:29;10.48;;;5.03;;
14526;SDS011;7350;51.208;4.238;2022-08-05T04:31:57;9.93;;;5.10;;
14526;SDS011;7350;51.208;4.238;2022-08-05T04:34:24;8.23;;;5.70;;
14526;SDS011;7350;51.208;4.238;2022-08-05T04:36:51;12.05;;;6.30;;
14526;SDS011;7350;51.208;4.238;2022-08-05T04:39:19;7.75;;;5.80;;
14526;SDS011;7350;51.208;4.238;2022-08-05T04:41:46;8.15;;;5.75;;
14526;SDS011;7350;51.208;4.238;2022-08-05T04:44:13;9.75;;;6.38;;
14526;SDS011;7350;51.208;4.238;2022-08-05T04:46:41;9.25;;;5.93;;
14526;SDS011;7350;51.208;4.238;2022-08-05T04:49:09;12.50;;;6.65;;
14526;SDS011;7350;51.208;4.238;2022-08-05T04:51:36;7.43;;;6.32;;
14526;SDS011;7350;51.208;4.238;2022-08-05T04:54:03;11.20;;;6.55;;
14526;SDS011;7350;51.208;4.238;2022-08-05T04:56:30;11.52;;;6.50;;
14526;SDS011;7350;51.208;4.238;2022-08-05T04:58:57;8.65;;;6.47;;
14526;SDS011;7350;51.208;4.238;2022-08-05T05:01:24;11.90;;;6.72;;
14526;SDS011;7350;51.208;4.238;2022-08-05T05:03:51;11.43;;;6.82;;
14526;SDS011;7350;51.208;4.238;2022-08-05T05:06:19;9.32;;;5.80;;
14526;SDS011;7350;51.208;4.238;2022-08-05T05:08:46;8.57;;;5.22;;
14526;SDS011;7350;51.208;4.238;2022-08-05T05:11:13;8.80;;;5.40;;
14526;SDS011;7350;51.208;4.238;2022-08-05T05:13:39;8.32;;;5.35;;
14526;SDS011;7350;51.208;4.238;2022-08-05T05:16:06;9.82;;;6.13;;
14526;SDS011;7350;51.208;4.238;2022-08-05T05:18:34;8.13;;;5.63;;
14526;SDS011;7350;51.208;4.238;2022-08-05T05:21:01;9.57;;;5.70;;
14526;SDS011;7350;51.208;4.238;2022-08-05T05:23:29;8.65;;;5.47;;
14526;SDS011;7350;51.208;4.238;2022-08-05T05:25:56;8.77;;;5.30;;
14526;SDS011;7350;51.208;4.238;2022-08-05T05:28:23;9.90;;;5.68;;
14526;SDS011;7350;51.208;4.238;2022-08-05T05:30:50;9.70;;;5.40;;
14526;SDS011;7350;51.208;4.238;2022-08-05T05:33:17;10.15;;;6.07;;
14526;SDS011;7350;51.208;4.238;2022-08-05T05:35:44;6.63;;;5.13;;
14526;SDS011;7350;51.208;4.238;2022-08-05T05:38:11;7.57;;;4.60;;
14526;SDS011;7350;51.208;4.238;2022-08-05T05:40:40;6.95;;;4.43;;
14526;SDS011;7350;51.208;4.238;2022-08-05T05:43:08;6.45;;;4.47;;
14526;SDS011;7350;51.208;4.238;2022-08-05T05:45:35;8.43;;;4.72;;
14526;SDS011;7350;51.208;4.238;2022-08-05T05:48:02;8.23;;;4.40;;
14526;SDS011;7350;51.208;4.238;2022-08-05T05:50:31;8.00;;;4.10;;
14526;SDS011;7350;51.208;4.238;2022-08-05T05:52:59;9.35;;;3.50;;
14526;SDS011;7350;51.208;4.238;2022-08-05T05:55:26;7.72;;;3.92;;
14526;SDS011;7350;51.208;4.238;2022-08-05T05:57:54;5.18;;;3.13;;
14526;SDS011;7350;51.208;4.238;2022-08-05T06:00:21;7.40;;;3.70;;
14526;SDS011;7350;51.208;4.238;2022-08-05T06:02:49;6.15;;;3.75;;
14526;SDS011;7350;51.208;4.238;2022-08-05T06:05:16;8.70;;;3.40;;
14526;SDS011;7350;51.208;4.238;2022-08-05T06:07:44;6.85;;;3.42;;
14526;SDS011;7350;51.208;4.238;2022-08-05T06:10:11;6.82;;;3.35;;
14526;SDS011;7350;51.208;4.238;2022-08-05T06:12:38;5.05;;;2.88;;
14526;SDS011;7350;51.208;4.238;2022-08-05T06:15:07;7.82;;;3.50;;
14526;SDS011;7350;51.208;4.238;2022-08-05T06:17:35;5.93;;;2.60;;
14526;SDS011;7350;51.208;4.238;2022-08-05T06:20:02;4.82;;;2.53;;
14526;SDS011;7350;51.208;4.238;2022-08-05T06:22:30;7.45;;;2.78;;
14526;SDS011;7350;51.208;4.238;2022-08-05T06:24:58;4.03;;;2.80;;
14526;SDS011;7350;51.208;4.238;2022-08-05T06:27:25;5.18;;;2.47;;
14526;SDS011;7350;51.208;4.238;2022-08-05T06:29:53;7.85;;;2.92;;
14526;SDS011;7350;51.208;4.238;2022-08-05T06:32:21;5.13;;;2.47;;
14526;SDS011;7350;51.208;4.238;2022-08-05T06:34:48;5.25;;;3.08;;
14526;SDS011;7350;51.208;4.238;2022-08-05T06:37:15;8.88;;;3.17;;
14526;SDS011;7350;51.208;4.238;2022-08-05T06:39:42;3.92;;;2.80;;
14526;SDS011;7350;51.208;4.238;2022-08-05T06:42:09;5.20;;;2.50;;
14526;SDS011;7350;51.208;4.238;2022-08-05T06:44:37;7.07;;;2.70;;
14526;SDS011;7350;51.208;4.238;2022-08-05T06:47:04;5.50;;;2.33;;
14526;SDS011;7350;51.208;4.238;2022-08-05T06:49:32;4.78;;;2.08;;
14526;SDS011;7350;51.208;4.238;2022-08-05T06:51:59;4.65;;;2.33;;
14526;SDS011;7350;51.208;4.238;2022-08-05T06:54:26;4.18;;;1.80;;
14526;SDS011;7350;51.208;4.238;2022-08-05T06:56:53;4.28;;;2.85;;
14526;SDS011;7350;51.208;4.238;2022-08-05T06:59:20;5.18;;;2.65;;
14526;SDS011;7350;51.208;4.238;2022-08-05T07:01:47;7.10;;;2.55;;
14526;SDS011;7350;51.208;4.238;2022-08-05T07:04:14;8.15;;;2.60;;
14526;SDS011;7350;51.208;4.238;2022-08-05T07:06:43;4.53;;;2.50;;
14526;SDS011;7350;51.208;4.238;2022-08-05T07:09:10;4.63;;;2.70;;
14526;SDS011;7350;51.208;4.238;2022-08-05T07:11:37;6.55;;;2.47;;
14526;SDS011;7350;51.208;4.238;2022-08-05T07:14:04;6.70;;;2.40;;
14526;SDS011;7350;51.208;4.238;2022-08-05T07:16:48;6.75;;;2.47;;
14526;SDS011;7350;51.208;4.238;2022-08-05T07:19:16;4.38;;;2.42;;
14526;SDS011;7350;51.208;4.238;2022-08-05T07:21:45;7.22;;;2.10;;
14526;SDS011;7350;51.208;4.238;2022-08-05T07:24:13;3.47;;;2.30;;
14526;SDS011;7350;51.208;4.238;2022-08-05T07:26:41;3.83;;;2.05;;
14526;SDS011;7350;51.208;4.238;2022-08-05T07:29:08;4.68;;;2.25;;
14526;SDS011;7350;51.208;4.238;2022-08-05T07:31:35;6.85;;;2.00;;
14526;SDS011;7350;51.208;4.238;2022-08-05T07:34:03;3.03;;;2.03;;
14526;SDS011;7350;51.208;4.238;2022-08-05T07:36:30;3.95;;;2.30;;
14526;SDS011;7350;51.208;4.238;2022-08-05T07:38:59;4.30;;;1.75;;
14526;SDS011;7350;51.208;4.238;2022-08-05T07:41:27;5.45;;;2.42;;
14526;SDS011;7350;51.208;4.238;2022-08-05T07:43:54;4.93;;;2.38;;
14526;SDS011;7350;51.208;4.238;2022-08-05T07:46:22;5.60;;;2.15;;
14526;SDS011;7350;51.208;4.238;2022-08-05T07:48:50;3.55;;;2.38;;
14526;SDS011;7350;51.208;4.238;2022-08-05T07:51:17;4.43;;;1.80;;
14526;SDS011;7350;51.208;4.238;2022-08-05T07:53:44;4.22;;;1.95;;
14526;SDS011;7350;51.208;4.238;2022-08-05T07:56:12;4.75;;;2.28;;
14526;SDS011;7350;51.208;4.238;2022-08-05T07:58:39;2.22;;;1.65;;
14526;SDS011;7350;51.208;4.238;2022-08-05T08:01:06;4.68;;;2.00;;
14526;SDS011;7350;51.208;4.238;2022-08-05T08:03:33;3.78;;;2.10;;
14526;SDS011;7350;51.208;4.238;2022-08-05T08:06:00;3.80;;;1.60;;
14526;SDS011;7350;51.208;4.238;2022-08-05T08:08:27;4.63;;;1.65;;
14526;SDS011;7350;51.208;4.238;2022-08-05T08:10:54;3.72;;;1.80;;
14526;SDS011;7350;51.208;4.238;2022-08-05T08:13:22;5.07;;;2.10;;
14526;SDS011;7350;51.208;4.238;2022-08-05T08:15:49;3.97;;;2.20;;
14526;SDS011;7350;51.208;4.238;2022-08-05T08:18:16;4.68;;;1.80;;
14526;SDS011;7350;51.208;4.238;2022-08-05T08:20:43;4.43;;;1.20;;
14526;SDS011;7350;51.208;4.238;2022-08-05T08:23:10;6.65;;;1.60;;
14526;SDS011;7350;51.208;4.238;2022-08-05T08:25:37;3.25;;;1.30;;
14526;SDS011;7350;51.208;4.238;2022-08-05T08:28:04;5.88;;;1.50;;
14526;SDS011;7350;51.208;4.238;2022-08-05T08:30:33;3.50;;;1.15;;
14526;SDS011;7350;51.208;4.238;2022-08-05T08:32:59;2.80;;;1.30;;
14526;SDS011;7350;51.208;4.238;2022-08-05T08:35:32;4.35;;;1.10;;
14526;SDS011;7350;51.208;4.238;2022-08-05T08:37:58;3.42;;;1.33;;
14526;SDS011;7350;51.208;4.238;2022-08-05T08:40:25;2.35;;;1.20;;
14526;SDS011;7350;51.208;4.238;2022-08-05T08:42:53;2.90;;;1.10;;
14526;SDS011;7350;51.208;4.238;2022-08-05T08:45:20;4.97;;;1.15;;
14526;SDS011;7350;51.208;4.238;2022-08-05T08:47:49;5.38;;;1.10;;
14526;SDS011;7350;51.208;4.238;2022-08-05T08:50:19;4.93;;;1.55;;
14526;SDS011;7350;51.208;4.238;2022-08-05T08:52:48;2.50;;;1.00;;
14526;SDS011;7350;51.208;4.238;2022-08-05T08:55:17;4.28;;;1.20;;
14526;SDS011;7350;51.208;4.238;2022-08-05T08:57:45;1.92;;;1.00;;
14526;SDS011;7350;51.208;4.238;2022-08-05T09:00:13;1.05;;;0.70;;
14526;SDS011;7350;51.208;4.238;2022-08-05T09:02:40;3.00;;;0.93;;
14526;SDS011;7350;51.208;4.238;2022-08-05T09:05:11;1.85;;;0.70;;
14526;SDS011;7350;51.208;4.238;2022-08-05T09:07:38;1.80;;;1.00;;
14526;SDS011;7350;51.208;4.238;2022-08-05T09:10:05;2.38;;;1.30;;
14526;SDS011;7350;51.208;4.238;2022-08-05T09:12:33;1.75;;;0.82;;
14526;SDS011;7350;51.208;4.238;2022-08-05T09:15:01;1.38;;;0.80;;
14526;SDS011;7350;51.208;4.238;2022-08-05T09:17:28;2.35;;;1.00;;
14526;SDS011;7350;51.208;4.238;2022-08-05T09:19:56;2.40;;;0.73;;
14526;SDS011;7350;51.208;4.238;2022-08-05T09:22:24;2.50;;;0.75;;
14526;SDS011;7350;51.208;4.238;2022-08-05T09:24:58;1.77;;;0.70;;
14526;SDS011;7350;51.208;4.238;2022-08-05T09:27:29;3.17;;;0.80;;
14526;SDS011;7350;51.208;4.238;2022-08-05T09:29:58;2.45;;;0.98;;
14526;SDS011;7350;51.208;4.238;2022-08-05T09:32:33;0.82;;;0.70;;
14526;SDS011;7350;51.208;4.238;2022-08-05T09:35:08;3.67;;;0.90;;
14526;SDS011;7350;51.208;4.238;2022-08-05T09:37:38;2.35;;;1.23;;
14526;SDS011;7350;51.208;4.238;2022-08-05T09:40:27;1.75;;;1.20;;
14526;SDS011;7350;51.208;4.238;2022-08-05T09:42:56;3.67;;;1.20;;
14526;SDS011;7350;51.208;4.238;2022-08-05T09:45:33;1.88;;;1.13;;
14526;SDS011;7350;51.208;4.238;2022-08-05T09:48:02;2.92;;;1.15;;
14526;SDS011;7350;51.208;4.238;2022-08-05T09:50:47;2.45;;;0.90;;
14526;SDS011;7350;51.208;4.238;2022-08-05T09:53:17;5.18;;;1.10;;
14526;SDS011;7350;51.208;4.238;2022-08-05T09:55:44;1.85;;;1.00;;
14526;SDS011;7350;51.208;4.238;2022-08-05T09:58:11;1.38;;;0.73;;
14526;SDS011;7350;51.208;4.238;2022-08-05T10:00:39;1.67;;;0.82;;
14526;SDS011;7350;51.208;4.238;2022-08-05T10:03:16;2.50;;;0.65;;
14526;SDS011;7350;51.208;4.238;2022-08-05T10:05:43;1.88;;;0.80;;
14526;SDS011;7350;51.208;4.238;2022-08-05T10:08:11;1.58;;;0.68;;
14526;SDS011;7350;51.208;4.238;2022-08-05T10:10:46;3.30;;;0.85;;
14526;SDS011;7350;51.208;4.238;2022-08-05T10:13:24;2.08;;;0.73;;
14526;SDS011;7350;51.208;4.238;2022-08-05T10:15:53;1.30;;;0.77;;
14526;SDS011;7350;51.208;4.238;2022-08-05T10:18:22;1.30;;;0.75;;
14526;SDS011;7350;51.208;4.238;2022-08-05T10:20:52;1.95;;;0.75;;
14526;SDS011;7350;51.208;4.238;2022-08-05T10:23:21;4.05;;;1.13;;
14526;SDS011;7350;51.208;4.238;2022-08-05T10:25:50;3.70;;;0.90;;
14526;SDS011;7350;51.208;4.238;2022-08-05T10:28:20;1.75;;;0.82;;
14526;SDS011;7350;51.208;4.238;2022-08-05T10:30:47;4.68;;;0.95;;
14526;SDS011;7350;51.208;4.238;2022-08-05T10:33:14;2.45;;;0.90;;
14526;SDS011;7350;51.208;4.238;2022-08-05T10:35:43;2.83;;;0.80;;
14526;SDS011;7350;51.208;4.238;2022-08-05T10:38:10;5.63;;;2.15;;
14526;SDS011;7350;51.208;4.238;2022-08-05T10:40:38;2.20;;;0.73;;
14526;SDS011;7350;51.208;4.238;2022-08-05T10:43:12;1.73;;;0.80;;
14526;SDS011;7350;51.208;4.238;2022-08-05T10:45:54;2.88;;;1.15;;
14526;SDS011;7350;51.208;4.238;2022-08-05T10:48:29;1.95;;;0.90;;
14526;SDS011;7350;51.208;4.238;2022-08-05T10:50:58;1.30;;;0.68;;
14526;SDS011;7350;51.208;4.238;2022-08-05T10:53:33;1.92;;;0.73;;
14526;SDS011;7350;51.208;4.238;2022-08-05T10:56:02;2.55;;;0.70;;
14526;SDS011;7350;51.208;4.238;2022-08-05T10:58:32;4.65;;;0.90;;
14526;SDS011;7350;51.208;4.238;2022-08-05T11:01:03;0.75;;;0.60;;
14526;SDS011;7350;51.208;4.238;2022-08-05T11:03:31;1.27;;;0.50;;
14526;SDS011;7350;51.208;4.238;2022-08-05T11:06:05;2.03;;;0.60;;
14526;SDS011;7350;51.208;4.238;2022-08-05T11:08:34;1.45;;;0.50;;
14526;SDS011;7350;51.208;4.238;2022-08-05T11:14:03;1.70;;;0.80;;
14526;SDS011;7350;51.208;4.238;2022-08-05T11:16:31;0.75;;;0.40;;
14526;SDS011;7350;51.208;4.238;2022-08-05T11:21:50;2.30;;;0.60;;
14526;SDS011;7350;51.208;4.238;2022-08-05T11:24:17;1.75;;;0.70;;
14526;SDS011;7350;51.208;4.238;2022-08-05T11:26:45;0.75;;;0.55;;
14526;SDS011;7350;51.208;4.238;2022-08-05T11:32:25;0.45;;;0.45;;
14526;SDS011;7350;51.208;4.238;2022-08-05T11:34:53;1.23;;;0.50;;
14526;SDS011;7350;51.208;4.238;2022-08-05T11:43:23;2.83;;;0.80;;
14526;SDS011;7350;51.208;4.238;2022-08-05T11:45:52;2.90;;;0.70;;
14526;SDS011;7350;51.208;4.238;2022-08-05T11:48:19;1.67;;;0.50;;
14526;SDS011;7350;51.208;4.238;2022-08-05T11:50:47;2.03;;;1.05;;
14526;SDS011;7350;51.208;4.238;2022-08-05T11:53:15;1.65;;;0.75;;
14526;SDS011;7350;51.208;4.238;2022-08-05T11:55:53;1.05;;;0.52;;
14526;SDS011;7350;51.208;4.238;2022-08-05T11:58:26;1.65;;;0.50;;
14526;SDS011;7350;51.208;4.238;2022-08-05T12:01:02;2.20;;;0.70;;
14526;SDS011;7350;51.208;4.238;2022-08-05T12:03:39;1.38;;;0.60;;
14526;SDS011;7350;51.208;4.238;2022-08-05T12:06:08;1.75;;;0.60;;
14526;SDS011;7350;51.208;4.238;2022-08-05T12:08:41;1.02;;;0.70;;
14526;SDS011;7350;51.208;4.238;2022-08-05T12:11:10;1.20;;;0.60;;
14526;SDS011;7350;51.208;4.238;2022-08-05T12:13:51;0.68;;;0.40;;
14526;SDS011;7350;51.208;4.238;2022-08-05T12:16:20;3.22;;;0.98;;
14526;SDS011;7350;51.208;4.238;2022-08-05T12:18:48;1.05;;;0.50;;
14526;SDS011;7350;51.208;4.238;2022-08-05T12:21:16;1.48;;;0.60;;
14526;SDS011;7350;51.208;4.238;2022-08-05T12:23:51;2.10;;;0.50;;
14526;SDS011;7350;51.208;4.238;2022-08-05T12:26:19;1.45;;;0.50;;
14526;SDS011;7350;51.208;4.238;2022-08-05T12:28:46;0.85;;;0.75;;
14526;SDS011;7350;51.208;4.238;2022-08-05T12:31:13;1.05;;;0.50;;
14526;SDS011;7350;51.208;4.238;2022-08-05T12:33:43;1.35;;;0.70;;
14526;SDS011;7350;51.208;4.238;2022-08-05T12:36:10;1.20;;;0.57;;
14526;SDS011;7350;51.208;4.238;2022-08-05T12:38:38;2.72;;;0.55;;
14526;SDS011;7350;51.208;4.238;2022-08-05T12:41:06;2.15;;;0.80;;
14526;SDS011;7350;51.208;4.238;2022-08-05T12:43:34;0.57;;;0.50;;
14526;SDS011;7350;51.208;4.238;2022-08-05T12:46:20;1.90;;;0.73;;
14526;SDS011;7350;51.208;4.238;2022-08-05T12:48:56;2.38;;;1.40;;
14526;SDS011;7350;51.208;4.238;2022-08-05T12:51:24;2.15;;;0.60;;
14526;SDS011;7350;51.208;4.238;2022-08-05T12:53:56;2.38;;;0.65;;
14526;SDS011;7350;51.208;4.238;2022-08-05T12:56:26;0.80;;;0.43;;
14526;SDS011;7350;51.208;4.238;2022-08-05T12:59:10;1.70;;;0.52;;
14526;SDS011;7350;51.208;4.238;2022-08-05T13:01:39;1.38;;;0.60;;
14526;SDS011;7350;51.208;4.238;2022-08-05T13:04:07;1.25;;;0.50;;
14526;SDS011;7350;51.208;4.238;2022-08-05T13:06:41;1.58;;;0.60;;
14526;SDS011;7350;51.208;4.238;2022-08-05T13:09:11;1.27;;;0.70;;
14526;SDS011;7350;51.208;4.238;2022-08-05T13:11:41;1.67;;;0.50;;
14526;SDS011;7350;51.208;4.238;2022-08-05T13:14:16;1.80;;;0.80;;
14526;SDS011;7350;51.208;4.238;2022-08-05T13:16:47;1.63;;;0.70;;
14526;SDS011;7350;51.208;4.238;2022-08-05T13:19:18;4.95;;;2.17;;
14526;SDS011;7350;51.208;4.238;2022-08-05T13:21:46;2.55;;;0.82;;
14526;SDS011;7350;51.208;4.238;2022-08-05T13:24:14;1.38;;;0.90;;
14526;SDS011;7350;51.208;4.238;2022-08-05T13:26:42;2.25;;;0.77;;
14526;SDS011;7350;51.208;4.238;2022-08-05T13:29:10;3.40;;;1.25;;
14526;SDS011;7350;51.208;4.238;2022-08-05T13:31:37;2.15;;;0.57;;
14526;SDS011;7350;51.208;4.238;2022-08-05T13:34:04;1.88;;;1.08;;
14526;SDS011;7350;51.208;4.238;2022-08-05T13:36:33;1.95;;;0.68;;
14526;SDS011;7350;51.208;4.238;2022-08-05T13:39:01;2.38;;;0.80;;
14526;SDS011;7350;51.208;4.238;2022-08-05T13:41:29;1.63;;;0.93;;
14526;SDS011;7350;51.208;4.238;2022-08-05T13:43:56;1.88;;;0.60;;
14526;SDS011;7350;51.208;4.238;2022-08-05T13:46:24;1.70;;;0.60;;
14526;SDS011;7350;51.208;4.238;2022-08-05T13:48:51;2.22;;;0.80;;
14526;SDS011;7350;51.208;4.238;2022-08-05T13:51:24;1.88;;;0.55;;
14526;SDS011;7350;51.208;4.238;2022-08-05T13:53:55;1.45;;;0.55;;
14526;SDS011;7350;51.208;4.238;2022-08-05T13:56:22;0.50;;;0.50;;
14526;SDS011;7350;51.208;4.238;2022-08-05T13:58:50;1.85;;;0.60;;
14526;SDS011;7350;51.208;4.238;2022-08-05T14:01:18;2.17;;;0.77;;
14526;SDS011;7350;51.208;4.238;2022-08-05T14:03:45;1.48;;;0.65;;
14526;SDS011;7350;51.208;4.238;2022-08-05T14:06:34;1.67;;;0.70;;
14526;SDS011;7350;51.208;4.238;2022-08-05T14:09:02;1.75;;;0.70;;
14526;SDS011;7350;51.208;4.238;2022-08-05T14:11:29;2.38;;;0.80;;
14526;SDS011;7350;51.208;4.238;2022-08-05T14:13:58;1.27;;;0.68;;
14526;SDS011;7350;51.208;4.238;2022-08-05T14:16:24;3.13;;;0.50;;
14526;SDS011;7350;51.208;4.238;2022-08-05T14:18:51;1.45;;;0.80;;
14526;SDS011;7350;51.208;4.238;2022-08-05T14:21:18;3.42;;;1.23;;
14526;SDS011;7350;51.208;4.238;2022-08-05T14:23:45;4.00;;;1.40;;
14526;SDS011;7350;51.208;4.238;2022-08-05T14:26:14;2.72;;;1.05;;
14526;SDS011;7350;51.208;4.238;2022-08-05T14:28:41;1.17;;;0.93;;
14526;SDS011;7350;51.208;4.238;2022-08-05T14:31:08;1.15;;;0.50;;
14526;SDS011;7350;51.208;4.238;2022-08-05T14:33:34;2.63;;;0.70;;
14526;SDS011;7350;51.208;4.238;2022-08-05T14:36:02;5.22;;;1.15;;
14526;SDS011;7350;51.208;4.238;2022-08-05T14:38:32;1.88;;;0.80;;
14526;SDS011;7350;51.208;4.238;2022-08-05T14:40:59;6.38;;;3.33;;
14526;SDS011;7350;51.208;4.238;2022-08-05T14:43:28;2.47;;;0.82;;
14526;SDS011;7350;51.208;4.238;2022-08-05T14:45:54;4.88;;;1.80;;
14526;SDS011;7350;51.208;4.238;2022-08-05T14:48:21;2.35;;;0.90;;
14526;SDS011;7350;51.208;4.238;2022-08-05T14:50:48;1.80;;;0.70;;
14526;SDS011;7350;51.208;4.238;2022-08-05T14:53:19;3.25;;;0.73;;
14526;SDS011;7350;51.208;4.238;2022-08-05T14:55:46;1.27;;;0.63;;
14526;SDS011;7350;51.208;4.238;2022-08-05T14:58:13;2.70;;;0.70;;
14526;SDS011;7350;51.208;4.238;2022-08-05T15:00:42;3.28;;;0.95;;
14526;SDS011;7350;51.208;4.238;2022-08-05T15:03:09;2.10;;;0.77;;
14526;SDS011;7350;51.208;4.238;2022-08-05T15:05:35;4.35;;;1.05;;
14526;SDS011;7350;51.208;4.238;2022-08-05T15:08:03;2.78;;;0.90;;
14526;SDS011;7350;51.208;4.238;2022-08-05T15:10:30;1.88;;;0.60;;
14526;SDS011;7350;51.208;4.238;2022-08-05T15:12:57;2.17;;;0.90;;
14526;SDS011;7350;51.208;4.238;2022-08-05T15:15:25;1.83;;;0.80;;
14526;SDS011;7350;51.208;4.238;2022-08-05T15:17:54;1.48;;;0.60;;
14526;SDS011;7350;51.208;4.238;2022-08-05T15:20:21;2.97;;;0.90;;
14526;SDS011;7350;51.208;4.238;2022-08-05T15:22:49;2.22;;;0.60;;
14526;SDS011;7350;51.208;4.238;2022-08-05T15:25:16;3.65;;;1.33;;